メインページ
METAR-TAF:

METAR-TAF

空港 :

Naval Outlying Landing Field Imperial Beach (Ream Field)

Imperial Beach, カリフォルニア州, アメリカ合衆国

緯度: 32-33-47N, 経度: 117-06-36W, 海抜: 7m

現時点の気象観測

当レポートは59分前の04:56(UTC)に作成
の風 4kt
気温 13°C
湿度 88%
気圧 1019 hPa
視程: 14.5km
高度1000ftの雲はほとんどない

METAR: KNRS 210456Z 09004KT 9SM FEW010 13/11 A3008 RMK AO2 SLP185 T01330111

時間: 21:55 (05:55 UTC)


TAF: 見つかりません

4,000以上の空港の気象観測と天気予報(METAR報とTAF報)

利用可能な観測所は地図上に黄色い丸と赤い丸で示す。

丸の上にカーソルを重ねると観測所名を参照できる。

次にクリックすると気象観測と天気予報を参照できる。

マップの切り替え:黒色「×」印の緑ボタンをクリックして拡大、「-」印の緑ボタンをクリックして縮小、緑色の三角印をクリックして隣りの地図に切り替え


METAR-TAF: